Time;durP1;ratioP1;P1;durP2;ratioP2;P2;SDS_P1;SDS_P2;PMS_P1;PMS_P2;Temp;Humidity;BMP_temperature;BMP_pressure;BME280_temperature;BME280_humidity;BME280_pressure;Samples;Min_cycle;Max_cycle;Signal;HPM_P1;HPM_P2
2022/07/22 00:02:00;;;;;;;8.75;7.85;;;;;;;;;;5122168;27;20200;-65
2022/07/22 00:04:28;;;;;;;8.55;7.75;;;;;;;;;;5106640;27;20269;-65
2022/07/22 00:06:55;;;;;;;8.25;7.43;;;;;;;;;;5110043;27;20229;-65
2022/07/22 00:09:22;;;;;;;8.40;7.40;;;;;;;;;;5106708;27;20666;-65
2022/07/22 00:11:50;;;;;;;8.25;7.40;;;;;;;;;;5114774;27;20195;-65
2022/07/22 00:14:18;;;;;;;8.43;7.63;;;;;;;;;;5131803;27;20216;-65
2022/07/22 00:16:45;;;;;;;8.35;7.55;;;;;;;;;;5104823;27;20231;-65
2022/07/22 00:19:12;;;;;;;8.70;7.82;;;;;;;;;;5132481;27;20192;-65
2022/07/22 00:21:40;;;;;;;8.82;7.13;;;;;;;;;;5102524;27;20207;-65
2022/07/22 00:24:08;;;;;;;9.10;7.75;;;;;;;;;;5137840;27;20277;-65
2022/07/22 00:26:35;;;;;;;9.10;8.15;;;;;;;;;;5106198;27;20226;-65
2022/07/22 00:29:03;;;;;;;9.00;8.10;;;;;;;;;;5109305;27;20654;-65
2022/07/22 00:31:31;;;;;;;9.35;8.05;;;;;;;;;;5113195;27;20207;-65
2022/07/22 00:34:01;;;;;;;8.00;7.28;;;;;;;;;;5116695;27;20204;-65
2022/07/22 00:36:28;;;;;;;8.40;7.60;;;;;;;;;;5099795;27;20243;-64
2022/07/22 00:38:56;;;;;;;9.00;8.20;;;;;;;;;;5097467;27;20212;-65
2022/07/22 00:41:24;;;;;;;9.27;7.93;;;;;;;;;;5111841;27;20222;-65
2022/07/22 00:43:59;;;;;;;8.60;7.60;;;;;;;;;;5099144;27;20223;-65
2022/07/22 00:46:28;;;;;;;8.93;8.00;;;;;;;;;;5108122;27;20253;-65
2022/07/22 00:48:56;;;;;;;8.63;7.82;;;;;;;;;;5091644;27;20217;-65
2022/07/22 00:51:25;;;;;;;8.48;7.20;;;;;;;;;;5114051;27;20272;-65
2022/07/22 00:53:53;;;;;;;8.27;7.55;;;;;;;;;;5103504;27;20226;-65
2022/07/22 00:56:21;;;;;;;8.38;7.53;;;;;;;;;;5102300;27;20219;-65
2022/07/22 00:58:49;;;;;;;8.00;7.30;;;;;;;;;;5104928;27;20211;-65
2022/07/22 01:01:17;;;;;;;7.95;7.18;;;;;;;;;;5133507;27;20573;-65
2022/07/22 01:03:45;;;;;;;9.35;7.88;;;;;;;;;;5122060;27;20281;-65
2022/07/22 01:06:16;;;;;;;7.88;7.07;;;;;;;;;;5089655;27;20329;-65
2022/07/22 01:08:44;;;;;;;8.02;7.10;;;;;;;;;;5104864;27;20199;-64
2022/07/22 01:11:16;;;;;;;7.82;7.22;;;;;;;;;;5082565;27;20208;-65
2022/07/22 01:13:44;;;;;;;8.35;7.55;;;;;;;;;;5084989;27;20203;-65
2022/07/22 01:16:12;;;;;;;8.75;7.95;;;;;;;;;;5089590;27;20610;-64
2022/07/22 01:18:40;;;;;;;7.93;7.22;;;;;;;;;;5120984;27;20913;-63
2022/07/22 01:21:08;;;;;;;8.50;7.70;;;;;;;;;;5093036;27;20392;-65
2022/07/22 01:23:35;;;;;;;9.23;7.43;;;;;;;;;;5106778;27;20284;-65
2022/07/22 01:26:03;;;;;;;8.82;7.80;;;;;;;;;;5105958;27;20223;-64
2022/07/22 01:28:31;;;;;;;8.75;7.93;;;;;;;;;;5103051;27;20207;-65
2022/07/22 01:30:59;;;;;;;8.18;7.50;;;;;;;;;;5102409;27;20211;-65
2022/07/22 01:33:26;;;;;;;8.32;7.57;;;;;;;;;;5122939;27;20209;-65
2022/07/22 01:35:54;;;;;;;10.23;7.88;;;;;;;;;;5104835;27;20281;-65
2022/07/22 01:38:22;;;;;;;7.70;6.90;;;;;;;;;;5086281;27;20650;-64
2022/07/22 01:40:50;;;;;;;7.93;7.20;;;;;;;;;;5099571;27;20278;-65
2022/07/22 01:43:17;;;;;;;7.90;7.20;;;;;;;;;;5100390;27;20223;-65
2022/07/22 01:45:45;;;;;;;8.05;7.35;;;;;;;;;;5104273;27;20579;-64
2022/07/22 01:48:13;;;;;;;8.25;7.55;;;;;;;;;;5105290;27;20219;-64
2022/07/22 01:50:41;;;;;;;9.13;7.68;;;;;;;;;;5110073;27;20231;-64
2022/07/22 01:53:09;;;;;;;9.63;7.28;;;;;;;;;;5077032;27;20219;-64
2022/07/22 01:55:36;;;;;;;10.13;7.40;;;;;;;;;;5089823;27;20207;-65
2022/07/22 01:58:04;;;;;;;7.60;6.88;;;;;;;;;;5079858;27;20207;-65
2022/07/22 02:00:32;;;;;;;8.23;7.43;;;;;;;;;;5088944;27;20207;-65
2022/07/22 02:03:00;;;;;;;9.70;7.40;;;;;;;;;;5081939;27;20234;-65
2022/07/22 02:05:27;;;;;;;8.45;7.45;;;;;;;;;;5086814;27;20323;-65
2022/07/22 02:07:59;;;;;;;8.00;7.20;;;;;;;;;;5087243;27;20207;-63
2022/07/22 02:10:27;;;;;;;8.77;7.10;;;;;;;;;;5087515;27;20199;-63
2022/07/22 02:12:54;;;;;;;8.18;6.88;;;;;;;;;;5072464;27;21626;-65
2022/07/22 02:15:22;;;;;;;8.02;7.38;;;;;;;;;;5113016;27;20203;-65
2022/07/22 02:17:50;;;;;;;8.23;7.40;;;;;;;;;;5084628;27;20227;-64
2022/07/22 02:20:17;;;;;;;9.60;7.25;;;;;;;;;;5086253;27;20226;-66
2022/07/22 02:22:45;;;;;;;10.30;7.80;;;;;;;;;;5097619;27;20204;-63
2022/07/22 02:25:12;;;;;;;9.15;8.25;;;;;;;;;;5106841;27;20191;-65
2022/07/22 02:27:41;;;;;;;10.45;7.32;;;;;;;;;;5106432;27;20223;-63
2022/07/22 02:30:09;;;;;;;8.35;7.28;;;;;;;;;;5108509;28;20199;-65
2022/07/22 02:32:36;;;;;;;8.25;7.15;;;;;;;;;;5110751;27;20265;-65
2022/07/22 02:35:04;;;;;;;10.50;7.30;;;;;;;;;;5101168;27;20199;-65
2022/07/22 02:37:31;;;;;;;7.85;7.10;;;;;;;;;;5088057;27;20227;-65
2022/07/22 02:39:59;;;;;;;8.30;7.50;;;;;;;;;;5092672;27;20200;-65
2022/07/22 02:42:27;;;;;;;8.15;7.35;;;;;;;;;;5119163;27;20249;-64
2022/07/22 02:44:54;;;;;;;8.20;7.25;;;;;;;;;;5104142;27;20338;-65
2022/07/22 02:47:22;;;;;;;8.10;7.32;;;;;;;;;;5100610;27;20228;-64
2022/07/22 02:49:49;;;;;;;7.95;7.18;;;;;;;;;;5082036;27;20214;-65
2022/07/22 02:52:16;;;;;;;7.88;7.13;;;;;;;;;;5100855;27;20195;-65
2022/07/22 02:54:44;;;;;;;8.98;7.65;;;;;;;;;;5093938;28;20208;-65
2022/07/22 02:57:12;;;;;;;8.85;7.65;;;;;;;;;;5118984;27;20246;-64
2022/07/22 02:59:39;;;;;;;8.70;7.65;;;;;;;;;;5123925;27;20278;-64
2022/07/22 03:02:06;;;;;;;8.73;7.78;;;;;;;;;;5133353;27;20256;-65
2022/07/22 03:04:34;;;;;;;8.50;7.68;;;;;;;;;;5121552;28;20223;-65
2022/07/22 03:07:02;;;;;;;7.90;7.30;;;;;;;;;;5104860;28;20227;-65
2022/07/22 03:09:29;;;;;;;8.27;7.32;;;;;;;;;;5117847;27;20207;-65
2022/07/22 03:11:57;;;;;;;7.97;7.25;;;;;;;;;;5094630;28;20257;-65
2022/07/22 03:14:24;;;;;;;7.50;6.80;;;;;;;;;;5101297;28;20203;-65
2022/07/22 03:16:51;;;;;;;7.78;7.05;;;;;;;;;;5102538;27;20228;-65
2022/07/22 03:19:19;;;;;;;7.53;6.72;;;;;;;;;;5100967;27;20200;-65
2022/07/22 03:21:47;;;;;;;8.40;7.60;;;;;;;;;;5108604;28;20199;-65
2022/07/22 03:24:14;;;;;;;7.65;6.95;;;;;;;;;;5103360;28;20215;-65
2022/07/22 03:26:41;;;;;;;8.00;7.20;;;;;;;;;;5098416;28;20222;-65
2022/07/22 03:29:09;;;;;;;9.10;7.23;;;;;;;;;;5100696;28;20196;-65
2022/07/22 03:31:36;;;;;;;8.63;7.40;;;;;;;;;;5103031;28;20216;-65
2022/07/22 03:34:04;;;;;;;8.67;7.17;;;;;;;;;;5103295;28;20284;-65
2022/07/22 03:36:31;;;;;;;9.67;7.83;;;;;;;;;;5104931;28;20307;-64
2022/07/22 03:38:59;;;;;;;8.37;7.53;;;;;;;;;;5104311;28;20686;-65
2022/07/22 03:41:27;;;;;;;7.45;6.55;;;;;;;;;;5106638;27;20206;-65
2022/07/22 03:43:54;;;;;;;7.57;6.87;;;;;;;;;;5121253;27;21827;-65
2022/07/22 03:46:21;;;;;;;7.97;7.17;;;;;;;;;;5098917;28;20230;-65
2022/07/22 03:48:49;;;;;;;7.47;6.78;;;;;;;;;;5098173;27;20232;-65
2022/07/22 03:51:16;;;;;;;8.32;7.47;;;;;;;;;;5104136;28;20231;-64
2022/07/22 03:53:44;;;;;;;8.05;7.30;;;;;;;;;;5103001;28;20211;-65
2022/07/22 03:56:11;;;;;;;8.40;7.60;;;;;;;;;;5102617;28;20215;-64
2022/07/22 03:58:39;;;;;;;7.90;7.20;;;;;;;;;;5103779;27;20243;-64
2022/07/22 04:01:06;;;;;;;7.73;6.90;;;;;;;;;;5119958;27;20249;-64
2022/07/22 04:03:34;;;;;;;8.30;7.60;;;;;;;;;;5109856;27;20255;-65
2022/07/22 04:06:01;;;;;;;8.17;7.47;;;;;;;;;;5102113;27;20224;-65
2022/07/22 04:08:28;;;;;;;8.52;7.15;;;;;;;;;;5113770;27;20249;-64
2022/07/22 04:10:56;;;;;;;8.83;7.03;;;;;;;;;;5106191;27;20210;-65
2022/07/22 04:13:23;;;;;;;8.77;7.93;;;;;;;;;;5105635;27;20200;-65
2022/07/22 04:15:51;;;;;;;8.07;7.27;;;;;;;;;;5103258;27;20729;-64
2022/07/22 04:18:18;;;;;;;8.30;6.60;;;;;;;;;;5093500;27;20219;-64
2022/07/22 04:20:46;;;;;;;8.10;7.13;;;;;;;;;;5105235;27;20248;-64
2022/07/22 04:23:14;;;;;;;8.43;6.50;;;;;;;;;;5108129;27;20730;-65
2022/07/22 04:25:47;;;;;;;7.50;6.80;;;;;;;;;;5109345;27;20218;-65
2022/07/22 04:28:15;;;;;;;7.32;6.63;;;;;;;;;;5101626;27;20204;-65
2022/07/22 04:30:42;;;;;;;8.05;7.25;;;;;;;;;;5098876;27;20700;-65
2022/07/22 04:33:10;;;;;;;8.33;7.53;;;;;;;;;;5106074;27;20203;-65
2022/07/22 04:35:37;;;;;;;8.15;7.13;;;;;;;;;;5098121;27;20211;-63
2022/07/22 04:38:05;;;;;;;7.40;6.70;;;;;;;;;;5103845;27;20283;-63
2022/07/22 04:40:32;;;;;;;8.23;6.88;;;;;;;;;;5106401;27;20283;-65
2022/07/22 04:43:01;;;;;;;8.60;7.80;;;;;;;;;;5120573;27;20272;-64
2022/07/22 04:45:28;;;;;;;8.45;7.55;;;;;;;;;;5131156;27;20219;-65
2022/07/22 04:47:56;;;;;;;8.68;7.50;;;;;;;;;;5099717;27;20196;-65
2022/07/22 04:50:23;;;;;;;9.27;7.68;;;;;;;;;;5106952;27;20291;-66
2022/07/22 04:52:51;;;;;;;9.70;7.28;;;;;;;;;;5107495;27;20688;-65
2022/07/22 04:55:18;;;;;;;10.40;7.25;;;;;;;;;;5102264;27;20207;-65
2022/07/22 04:57:46;;;;;;;8.45;7.50;;;;;;;;;;5099074;27;20224;-66
2022/07/22 05:00:15;;;;;;;8.23;7.53;;;;;;;;;;5108709;27;20208;-65
2022/07/22 05:02:43;;;;;;;10.32;8.15;;;;;;;;;;5101686;27;20199;-66
2022/07/22 05:05:10;;;;;;;7.30;6.60;;;;;;;;;;5101572;27;20649;-65
2022/07/22 05:07:38;;;;;;;7.95;7.20;;;;;;;;;;5107019;27;20345;-64
2022/07/22 05:10:06;;;;;;;8.30;7.60;;;;;;;;;;5099400;27;20204;-66
2022/07/22 05:12:34;;;;;;;8.65;7.53;;;;;;;;;;5100113;27;20203;-67
2022/07/22 05:15:01;;;;;;;11.25;7.68;;;;;;;;;;5102080;27;20216;-67
2022/07/22 05:17:29;;;;;;;8.55;7.65;;;;;;;;;;5121671;27;20227;-65
2022/07/22 05:19:56;;;;;;;8.63;7.72;;;;;;;;;;5105828;27;20207;-65
2022/07/22 05:22:24;;;;;;;9.93;7.88;;;;;;;;;;5104325;27;20747;-65
2022/07/22 05:24:51;;;;;;;9.15;8.20;;;;;;;;;;5105802;27;20704;-65
2022/07/22 05:27:19;;;;;;;9.00;8.10;;;;;;;;;;5103351;27;20710;-67
2022/07/22 05:29:46;;;;;;;9.52;7.60;;;;;;;;;;5101357;27;20785;-65
2022/07/22 05:32:14;;;;;;;7.88;7.10;;;;;;;;;;5097538;27;20192;-64
2022/07/22 05:34:42;;;;;;;7.85;7.05;;;;;;;;;;5123925;27;20540;-64
2022/07/22 05:37:09;;;;;;;7.95;5.55;;;;;;;;;;5098899;27;21145;-64
2022/07/22 05:39:37;;;;;;;6.40;5.68;;;;;;;;;;5103531;27;20208;-66
2022/07/22 05:42:04;;;;;;;6.25;5.03;;;;;;;;;;5101206;27;20291;-66
2022/07/22 05:44:32;;;;;;;4.88;4.45;;;;;;;;;;5098922;27;20217;-67
2022/07/22 05:47:00;;;;;;;5.30;4.80;;;;;;;;;;5101144;27;20233;-68
2022/07/22 05:49:27;;;;;;;7.00;4.32;;;;;;;;;;5100447;27;20108;-66
2022/07/22 05:52:00;;;;;;;4.68;4.28;;;;;;;;;;5096766;27;20204;-64
2022/07/22 05:54:28;;;;;;;6.75;3.88;;;;;;;;;;5102154;27;20221;-65
2022/07/22 05:56:56;;;;;;;5.30;4.22;;;;;;;;;;5099211;27;20254;-65
2022/07/22 05:59:23;;;;;;;6.28;4.20;;;;;;;;;;5097594;27;20233;-66
2022/07/22 06:01:50;;;;;;;5.13;4.10;;;;;;;;;;5122387;27;20181;-65
2022/07/22 06:04:18;;;;;;;4.78;4.30;;;;;;;;;;5100258;27;20268;-67
2022/07/22 06:06:47;;;;;;;6.07;3.97;;;;;;;;;;5105149;27;20255;-65
2022/07/22 06:09:14;;;;;;;6.05;4.20;;;;;;;;;;5110153;27;20295;-67
2022/07/22 06:11:42;;;;;;;5.80;4.95;;;;;;;;;;5105952;27;20207;-66
2022/07/22 06:14:10;;;;;;;4.40;4.00;;;;;;;;;;5106485;27;20958;-66
2022/07/22 06:16:38;;;;;;;5.13;4.43;;;;;;;;;;5103399;27;20233;-65
2022/07/22 06:19:05;;;;;;;4.90;4.45;;;;;;;;;;5108512;27;20222;-66
2022/07/22 06:21:32;;;;;;;4.68;4.38;;;;;;;;;;5107817;27;20958;-66
2022/07/22 06:24:00;;;;;;;5.05;4.63;;;;;;;;;;5099121;27;20227;-65
2022/07/22 06:26:27;;;;;;;6.65;4.60;;;;;;;;;;5130647;27;20228;-68
2022/07/22 06:28:55;;;;;;;5.75;4.80;;;;;;;;;;5108639;27;20195;-67
2022/07/22 06:31:24;;;;;;;5.70;5.15;;;;;;;;;;5105747;27;20203;-66
2022/07/22 06:33:51;;;;;;;6.97;5.68;;;;;;;;;;5112900;27;20236;-66
2022/07/22 06:36:19;;;;;;;6.05;4.72;;;;;;;;;;5110708;27;20219;-65
2022/07/22 06:38:46;;;;;;;7.68;6.03;;;;;;;;;;5108674;27;20206;-65
2022/07/22 06:41:13;;;;;;;6.03;5.43;;;;;;;;;;5106258;27;20666;-66
2022/07/22 06:43:41;;;;;;;6.22;5.57;;;;;;;;;;5106528;27;20200;-67
2022/07/22 06:46:08;;;;;;;6.25;5.63;;;;;;;;;;5107929;28;20231;-66
2022/07/22 06:48:36;;;;;;;6.30;5.53;;;;;;;;;;5103800;28;20214;-65
2022/07/22 06:51:04;;;;;;;6.15;5.45;;;;;;;;;;5101450;27;20304;-66
2022/07/22 06:53:32;;;;;;;6.82;5.88;;;;;;;;;;5101894;28;20203;-67
2022/07/22 06:56:00;;;;;;;6.68;5.88;;;;;;;;;;5103697;28;20223;-67
2022/07/22 06:58:33;;;;;;;6.38;5.85;;;;;;;;;;5100851;27;20207;-68
2022/07/22 07:01:02;;;;;;;5.93;5.43;;;;;;;;;;5100014;28;20678;-66
2022/07/22 07:03:29;;;;;;;6.90;6.00;;;;;;;;;;5116519;27;20204;-64
2022/07/22 07:06:02;;;;;;;6.07;5.50;;;;;;;;;;5109296;27;20616;-66
2022/07/22 07:08:30;;;;;;;6.10;5.50;;;;;;;;;;5099350;28;20898;-68
2022/07/22 07:10:57;;;;;;;6.32;5.70;;;;;;;;;;5101935;28;20204;-65
2022/07/22 07:13:25;;;;;;;6.32;5.70;;;;;;;;;;5094799;27;20207;-66
2022/07/22 07:15:52;;;;;;;10.45;6.45;;;;;;;;;;5102298;28;20215;-65
2022/07/22 07:18:20;;;;;;;18.00;7.05;;;;;;;;;;5082983;27;20216;-68
2022/07/22 07:20:48;;;;;;;7.43;5.53;;;;;;;;;;5084645;27;20200;-66
2022/07/22 07:23:15;;;;;;;103.45;13.63;;;;;;;;;;5074226;27;20276;-65
2022/07/22 07:25:46;;;;;;;49.85;11.25;;;;;;;;;;5081600;27;20976;-66
2022/07/22 07:28:14;;;;;;;13.55;6.68;;;;;;;;;;5088267;27;20675;-65
2022/07/22 07:30:41;;;;;;;9.20;5.18;;;;;;;;;;5089258;27;20218;-67
2022/07/22 07:33:09;;;;;;;27.90;7.38;;;;;;;;;;5113130;27;20199;-66
2022/07/22 07:35:36;;;;;;;77.97;12.68;;;;;;;;;;5108306;27;20697;-65
2022/07/22 07:38:04;;;;;;;84.20;14.50;;;;;;;;;;5122003;27;20291;-66
2022/07/22 07:40:32;;;;;;;11.90;5.68;;;;;;;;;;5118996;27;20667;-66
2022/07/22 07:43:00;;;;;;;7.45;5.78;;;;;;;;;;5099673;27;20253;-65
2022/07/22 07:45:31;;;;;;;14.88;6.20;;;;;;;;;;5090393;27;20495;-68
2022/07/22 07:47:58;;;;;;;5.78;5.18;;;;;;;;;;5093136;27;20196;-66
2022/07/22 07:50:26;;;;;;;6.35;5.20;;;;;;;;;;5112114;27;20275;-66
2022/07/22 07:52:53;;;;;;;7.28;5.45;;;;;;;;;;5093224;27;20307;-64
2022/07/22 07:55:21;;;;;;;6.32;5.72;;;;;;;;;;5110658;27;20196;-68
2022/07/22 07:57:49;;;;;;;5.80;5.30;;;;;;;;;;5091399;27;20238;-68
2022/07/22 08:00:23;;;;;;;7.15;5.97;;;;;;;;;;5110828;27;20294;-66
2022/07/22 08:02:51;;;;;;;7.53;5.72;;;;;;;;;;5094256;27;20212;-66
2022/07/22 08:05:20;;;;;;;6.70;6.00;;;;;;;;;;5088730;27;20239;-68
2022/07/22 08:07:49;;;;;;;6.40;5.22;;;;;;;;;;5096392;27;20224;-67
2022/07/22 08:10:17;;;;;;;6.28;5.50;;;;;;;;;;5095337;27;20227;-66
2022/07/22 08:13:05;;;;;;;7.45;6.72;;;;;;;;;;5095284;27;20208;-66
2022/07/22 08:15:35;;;;;;;6.95;6.20;;;;;;;;;;5093933;27;20257;-66
2022/07/22 08:18:03;;;;;;;8.25;6.53;;;;;;;;;;5092466;27;20203;-65
2022/07/22 08:20:32;;;;;;;7.15;6.13;;;;;;;;;;5089412;27;20290;-67
2022/07/22 08:22:59;;;;;;;6.55;5.95;;;;;;;;;;5095124;27;20204;-66
2022/07/22 08:25:27;;;;;;;9.48;6.00;;;;;;;;;;5091547;27;20257;-66
2022/07/22 08:27:55;;;;;;;6.50;5.90;;;;;;;;;;5116847;27;21585;-65
2022/07/22 08:30:23;;;;;;;6.63;6.00;;;;;;;;;;5095950;27;20215;-65
2022/07/22 08:32:51;;;;;;;6.90;6.30;;;;;;;;;;5119732;27;21268;-67
2022/07/22 08:35:18;;;;;;;7.05;6.35;;;;;;;;;;5108677;27;20215;-66
2022/07/22 08:37:47;;;;;;;6.70;6.10;;;;;;;;;;5108234;27;20223;-66
2022/07/22 08:40:16;;;;;;;6.68;6.10;;;;;;;;;;5106374;27;20210;-65
2022/07/22 08:42:45;;;;;;;6.20;5.70;;;;;;;;;;5093466;27;20199;-66
2022/07/22 08:45:13;;;;;;;7.10;6.22;;;;;;;;;;5092204;27;20710;-68
2022/07/22 08:47:49;;;;;;;7.07;6.28;;;;;;;;;;5092813;27;20319;-67
2022/07/22 08:50:17;;;;;;;6.85;6.15;;;;;;;;;;5087817;27;20290;-65
2022/07/22 08:52:44;;;;;;;7.47;6.55;;;;;;;;;;5092451;27;20513;-66
2022/07/22 08:55:12;;;;;;;7.18;6.38;;;;;;;;;;5089910;27;20219;-68
2022/07/22 08:57:44;;;;;;;6.43;5.88;;;;;;;;;;5092897;27;20227;-68
2022/07/22 09:00:13;;;;;;;6.57;6.00;;;;;;;;;;5093223;27;20206;-68
2022/07/22 09:02:43;;;;;;;6.75;6.05;;;;;;;;;;5096978;27;20991;-67
2022/07/22 09:05:16;;;;;;;6.53;5.93;;;;;;;;;;5092484;27;20619;-66
2022/07/22 09:08:04;;;;;;;6.55;5.72;;;;;;;;;;5094984;27;20200;-67
2022/07/22 09:10:35;;;;;;;7.28;5.78;;;;;;;;;;5090479;27;20233;-66
2022/07/22 09:13:07;;;;;;;6.68;6.07;;;;;;;;;;5084484;27;20212;-65
2022/07/22 09:15:35;;;;;;;7.85;5.90;;;;;;;;;;5088861;27;20619;-66
2022/07/22 09:18:05;;;;;;;7.20;6.30;;;;;;;;;;5082684;27;20215;-67
2022/07/22 09:20:36;;;;;;;8.85;6.10;;;;;;;;;;5087527;27;20223;-67
2022/07/22 09:23:20;;;;;;;7.28;5.70;;;;;;;;;;5088878;27;20203;-66
2022/07/22 09:25:48;;;;;;;9.55;6.60;;;;;;;;;;5095899;27;20230;-67
2022/07/22 09:28:21;;;;;;;6.70;5.95;;;;;;;;;;5105026;27;20669;-66
2022/07/22 09:30:55;;;;;;;9.05;5.90;;;;;;;;;;5096863;27;21052;-66
2022/07/22 09:33:24;;;;;;;6.90;6.20;;;;;;;;;;5090349;27;20628;-67
2022/07/22 09:35:53;;;;;;;7.72;6.05;;;;;;;;;;5092021;27;20320;-64
2022/07/22 09:38:28;;;;;;;6.40;5.80;;;;;;;;;;5090171;27;20898;-64
2022/07/22 09:40:55;;;;;;;6.70;5.82;;;;;;;;;;5090890;27;20590;-65
2022/07/22 09:43:23;;;;;;;6.22;5.63;;;;;;;;;;5091974;27;20693;-64
2022/07/22 09:45:58;;;;;;;6.22;5.68;;;;;;;;;;5091293;27;20239;-66
2022/07/22 09:48:26;;;;;;;7.55;5.20;;;;;;;;;;5092976;27;20223;-65
2022/07/22 09:50:56;;;;;;;5.57;5.07;;;;;;;;;;5099488;27;20199;-65
2022/07/22 09:53:24;;;;;;;5.65;5.03;;;;;;;;;;5104826;27;20211;-65
2022/07/22 09:55:52;;;;;;;7.85;5.55;;;;;;;;;;5100064;27;20952;-66
2022/07/22 09:58:19;;;;;;;5.20;4.80;;;;;;;;;;5102541;27;20203;-65
2022/07/22 10:00:50;;;;;;;5.45;4.95;;;;;;;;;;5093958;27;20199;-66
2022/07/22 10:03:19;;;;;;;5.75;5.20;;;;;;;;;;5089279;27;20223;-65
2022/07/22 10:05:47;;;;;;;5.85;5.32;;;;;;;;;;5089238;27;20273;-65
2022/07/22 10:08:14;;;;;;;5.47;4.97;;;;;;;;;;5103751;27;20218;-66
2022/07/22 10:10:42;;;;;;;5.35;4.85;;;;;;;;;;5090364;27;20207;-66
2022/07/22 10:13:09;;;;;;;7.28;5.00;;;;;;;;;;5087430;27;20206;-65
2022/07/22 10:15:38;;;;;;;5.65;5.15;;;;;;;;;;5086200;27;20212;-64
2022/07/22 10:18:07;;;;;;;5.55;5.10;;;;;;;;;;5089545;27;20240;-65
2022/07/22 10:20:35;;;;;;;5.93;5.30;;;;;;;;;;5101900;27;20204;-65
2022/07/22 10:23:02;;;;;;;5.07;4.65;;;;;;;;;;5086475;27;20420;-66
2022/07/22 10:26:11;;;;;;;6.03;5.43;;;;;;;;;;5090367;27;20226;-65
2022/07/22 10:28:39;;;;;;;5.32;4.82;;;;;;;;;;5060373;28;20201;-65
2022/07/22 10:31:20;;;;;;;5.40;5.00;;;;;;;;;;5096592;27;20204;-66
2022/07/22 10:33:49;;;;;;;5.15;4.72;;;;;;;;;;5094964;27;20221;-64
2022/07/22 10:36:30;;;;;;;4.20;3.80;;;;;;;;;;5081076;27;23062;-67
2022/07/22 10:39:04;;;;;;;4.82;4.20;;;;;;;;;;5082453;27;20260;-67
2022/07/22 10:41:36;;;;;;;5.60;4.05;;;;;;;;;;5086671;27;20207;-65
2022/07/22 10:44:04;;;;;;;4.97;4.57;;;;;;;;;;5095614;27;20207;-66
2022/07/22 10:46:50;;;;;;;5.05;4.65;;;;;;;;;;5102056;27;20230;-65
2022/07/22 10:49:19;;;;;;;4.40;4.10;;;;;;;;;;5102538;27;20282;-65
2022/07/22 10:52:05;;;;;;;4.90;4.32;;;;;;;;;;5112539;27;20198;-65
2022/07/22 10:54:35;;;;;;;4.47;4.10;;;;;;;;;;5102505;28;20204;-65
2022/07/22 10:57:05;;;;;;;6.38;4.90;;;;;;;;;;5094666;27;20223;-65
2022/07/22 10:59:32;;;;;;;5.35;4.45;;;;;;;;;;5101566;27;20222;-64
2022/07/22 11:02:00;;;;;;;4.32;4.00;;;;;;;;;;5095027;28;20832;-65
2022/07/22 11:04:27;;;;;;;5.93;4.47;;;;;;;;;;5105949;28;20246;-65
2022/07/22 11:06:56;;;;;;;5.25;4.05;;;;;;;;;;5093833;28;20235;-65
2022/07/22 11:09:31;;;;;;;5.13;4.40;;;;;;;;;;5093885;27;20192;-66
2022/07/22 11:11:58;;;;;;;4.85;4.30;;;;;;;;;;5090520;27;20569;-66
2022/07/22 11:14:35;;;;;;;5.70;3.90;;;;;;;;;;5092326;27;20778;-66
2022/07/22 11:17:08;;;;;;;5.13;4.63;;;;;;;;;;5093268;27;20224;-65
2022/07/22 11:19:39;;;;;;;6.70;4.70;;;;;;;;;;5094534;27;20203;-65
2022/07/22 11:22:09;;;;;;;5.03;4.63;;;;;;;;;;5095179;27;20215;-66
2022/07/22 11:24:37;;;;;;;5.65;4.53;;;;;;;;;;5092980;27;20660;-66
2022/07/22 11:27:09;;;;;;;4.45;4.15;;;;;;;;;;5090585;27;20264;-64
2022/07/22 11:29:39;;;;;;;4.90;4.40;;;;;;;;;;5114871;27;20214;-65
2022/07/22 11:32:09;;;;;;;4.85;4.45;;;;;;;;;;5093674;27;20210;-65
2022/07/22 11:34:38;;;;;;;5.15;4.65;;;;;;;;;;5106547;27;20218;-65
2022/07/22 11:37:05;;;;;;;5.60;5.10;;;;;;;;;;5107833;27;20776;-65
2022/07/22 11:39:33;;;;;;;5.50;4.97;;;;;;;;;;5089342;27;20200;-65
2022/07/22 11:42:01;;;;;;;5.15;4.50;;;;;;;;;;5096290;27;20226;-65
2022/07/22 11:44:29;;;;;;;4.82;4.43;;;;;;;;;;5094181;27;20210;-65
2022/07/22 11:47:00;;;;;;;5.53;4.40;;;;;;;;;;5071128;27;20270;-65
2022/07/22 11:49:29;;;;;;;4.20;3.90;;;;;;;;;;5100992;27;20203;-65
2022/07/22 11:51:56;;;;;;;5.03;4.53;;;;;;;;;;5102356;27;20195;-65
2022/07/22 11:54:23;;;;;;;4.68;4.28;;;;;;;;;;5109444;27;20757;-65
2022/07/22 11:56:51;;;;;;;4.90;4.50;;;;;;;;;;5121816;27;20223;-65
2022/07/22 11:59:23;;;;;;;5.07;4.68;;;;;;;;;;5100311;27;20212;-65
2022/07/22 12:01:52;;;;;;;5.43;4.85;;;;;;;;;;5108000;27;20208;-65
2022/07/22 12:04:22;;;;;;;5.07;4.65;;;;;;;;;;5111380;27;20211;-65
2022/07/22 12:06:49;;;;;;;5.95;4.10;;;;;;;;;;5097951;27;20581;-65
2022/07/22 12:09:28;;;;;;;5.43;4.85;;;;;;;;;;5099868;27;20199;-65
2022/07/22 12:11:57;;;;;;;5.22;4.72;;;;;;;;;;5097393;27;20208;-65
2022/07/22 12:14:27;;;;;;;5.13;4.53;;;;;;;;;;5092508;27;20357;-65
2022/07/22 12:16:55;;;;;;;5.25;4.78;;;;;;;;;;5093093;27;20250;-65
2022/07/22 12:19:24;;;;;;;4.50;4.18;;;;;;;;;;5094616;27;20215;-65
2022/07/22 12:22:13;;;;;;;5.30;4.80;;;;;;;;;;5093925;27;20200;-65
2022/07/22 12:24:42;;;;;;;4.93;4.50;;;;;;;;;;5109694;27;20758;-65
2022/07/22 12:27:14;;;;;;;4.90;4.50;;;;;;;;;;5093632;27;20224;-65
2022/07/22 12:29:42;;;;;;;6.40;4.50;;;;;;;;;;5084955;27;21345;-66
2022/07/22 12:32:25;;;;;;;4.53;4.13;;;;;;;;;;5089155;27;20203;-65
2022/07/22 12:34:58;;;;;;;5.18;4.32;;;;;;;;;;5085415;27;20704;-65
2022/07/22 12:37:25;;;;;;;5.03;4.63;;;;;;;;;;5081136;27;20753;-65
2022/07/22 12:39:56;;;;;;;4.45;4.15;;;;;;;;;;5082624;27;20267;-66
2022/07/22 12:42:24;;;;;;;6.18;4.53;;;;;;;;;;5117371;27;20223;-65
2022/07/22 12:45:11;;;;;;;4.32;3.75;;;;;;;;;;5087474;27;20253;-65
2022/07/22 12:48:01;;;;;;;4.72;4.32;;;;;;;;;;5103420;27;20235;-66
2022/07/22 12:50:29;;;;;;;6.13;4.10;;;;;;;;;;5087065;27;20212;-65
2022/07/22 12:52:59;;;;;;;4.22;3.90;;;;;;;;;;5089561;27;20217;-66
2022/07/22 12:55:52;;;;;;;4.90;4.47;;;;;;;;;;5098545;27;20203;-65
2022/07/22 12:58:19;;;;;;;4.63;4.22;;;;;;;;;;5095223;27;20207;-66
2022/07/22 13:00:50;;;;;;;4.55;3.95;;;;;;;;;;5089167;27;20307;-66
2022/07/22 13:03:18;;;;;;;30.00;5.65;;;;;;;;;;5094328;27;20199;-66
2022/07/22 13:05:50;;;;;;;4.45;4.05;;;;;;;;;;5102742;27;20238;-66
2022/07/22 13:08:18;;;;;;;4.57;3.90;;;;;;;;;;5106920;27;20439;-66
2022/07/22 13:10:48;;;;;;;5.43;4.05;;;;;;;;;;5112167;27;20256;-66
2022/07/22 13:13:16;;;;;;;4.28;3.83;;;;;;;;;;5107864;27;20198;-66
2022/07/22 13:15:45;;;;;;;4.63;4.22;;;;;;;;;;5118474;27;20222;-66
2022/07/22 13:18:13;;;;;;;5.88;4.35;;;;;;;;;;5108968;27;20227;-66
2022/07/22 13:20:40;;;;;;;4.50;4.10;;;;;;;;;;5103000;27;20582;-66
2022/07/22 13:23:07;;;;;;;4.65;4.25;;;;;;;;;;5104305;27;20210;-66
2022/07/22 13:25:35;;;;;;;4.65;4.25;;;;;;;;;;5109226;27;20242;-66
2022/07/22 13:28:03;;;;;;;14.32;5.30;;;;;;;;;;5107863;27;20207;-66
2022/07/22 13:30:31;;;;;;;6.03;4.18;;;;;;;;;;5106391;27;20235;-66
2022/07/22 13:32:58;;;;;;;4.35;3.95;;;;;;;;;;5105208;27;20461;-66
2022/07/22 13:35:26;;;;;;;28.23;7.32;;;;;;;;;;5105966;27;20210;-66
2022/07/22 13:37:53;;;;;;;11.52;4.85;;;;;;;;;;5106903;27;20226;-66
2022/07/22 13:40:21;;;;;;;4.53;4.13;;;;;;;;;;5108863;27;20195;-66
2022/07/22 13:42:48;;;;;;;4.63;4.22;;;;;;;;;;5100862;27;20203;-66
2022/07/22 13:45:15;;;;;;;4.88;4.30;;;;;;;;;;5102316;27;20215;-66
2022/07/22 13:47:43;;;;;;;4.38;4.07;;;;;;;;;;5097439;27;20243;-66
2022/07/22 13:50:11;;;;;;;4.80;4.28;;;;;;;;;;5099474;27;20217;-66
2022/07/22 13:52:38;;;;;;;4.43;4.10;;;;;;;;;;5101686;27;20203;-66
2022/07/22 13:55:06;;;;;;;4.85;4.32;;;;;;;;;;5107023;27;20210;-66
2022/07/22 13:57:34;;;;;;;4.60;4.20;;;;;;;;;;5095706;27;20627;-66
2022/07/22 14:00:02;;;;;;;4.80;4.00;;;;;;;;;;5108388;27;20211;-66
2022/07/22 14:02:29;;;;;;;4.38;3.97;;;;;;;;;;5109374;27;20227;-67
2022/07/22 14:04:57;;;;;;;4.53;4.15;;;;;;;;;;5108553;27;20675;-67
2022/07/22 14:07:25;;;;;;;6.15;4.47;;;;;;;;;;5109954;27;20227;-66
2022/07/22 14:09:52;;;;;;;5.32;4.13;;;;;;;;;;5099963;27;20200;-66
2022/07/22 14:12:20;;;;;;;6.03;4.25;;;;;;;;;;5103532;27;20210;-66
2022/07/22 14:14:48;;;;;;;5.85;4.38;;;;;;;;;;5113342;27;20221;-66
2022/07/22 14:17:15;;;;;;;5.00;3.95;;;;;;;;;;5105361;27;20223;-65
2022/07/22 14:19:48;;;;;;;4.32;4.05;;;;;;;;;;5097333;27;20210;-67
2022/07/22 14:22:24;;;;;;;4.28;3.97;;;;;;;;;;5097688;27;20203;-67
2022/07/22 14:24:51;;;;;;;4.18;3.85;;;;;;;;;;5095582;27;20348;-65
2022/07/22 14:27:19;;;;;;;4.57;4.18;;;;;;;;;;5104505;27;20218;-67
2022/07/22 14:29:46;;;;;;;4.07;3.78;;;;;;;;;;5110902;27;20198;-67
2022/07/22 14:32:14;;;;;;;4.10;3.80;;;;;;;;;;5107220;28;20195;-66
2022/07/22 14:34:41;;;;;;;4.15;3.83;;;;;;;;;;5102589;28;20203;-66
2022/07/22 14:37:08;;;;;;;4.65;4.18;;;;;;;;;;5102348;27;20621;-66
2022/07/22 14:39:36;;;;;;;5.43;4.20;;;;;;;;;;5103407;27;20199;-66
2022/07/22 14:42:04;;;;;;;4.88;4.38;;;;;;;;;;5123000;27;20214;-66
2022/07/22 14:44:31;;;;;;;4.25;3.85;;;;;;;;;;5095300;27;20202;-66
2022/07/22 14:46:58;;;;;;;4.45;3.95;;;;;;;;;;5101235;28;20223;-67
2022/07/22 14:49:26;;;;;;;4.57;3.92;;;;;;;;;;5107456;28;20802;-66
2022/07/22 14:51:53;;;;;;;5.53;4.07;;;;;;;;;;5109118;28;20406;-66
2022/07/22 14:54:20;;;;;;;7.55;4.50;;;;;;;;;;5108931;28;20208;-66